sensor_id;sensor_type;location;lat;lon;timestamp;P1;P2;P0
44871;PMS7003;30602;51.060;17.226;2023-02-04T00:01:08;0;0;0
44871;PMS7003;30602;51.060;17.226;2023-02-04T00:05:10;0;0;0
44871;PMS7003;30602;51.060;17.226;2023-02-04T00:08:21;0;0;0
44871;PMS7003;30602;51.060;17.226;2023-02-04T00:11:50;0;0;0
44871;PMS7003;30602;51.060;17.226;2023-02-04T00:15:03;2;0;0
44871;PMS7003;30602;51.060;17.226;2023-02-04T00:18:11;0;0;0
44871;PMS7003;30602;51.060;17.226;2023-02-04T00:21:21;0;0;0
44871;PMS7003;30602;51.060;17.226;2023-02-04T00:25:04;1;0;0
44871;PMS7003;30602;51.060;17.226;2023-02-04T00:28:12;0;0;0
44871;PMS7003;30602;51.060;17.226;2023-02-04T00:32:06;4;2;1
44871;PMS7003;30602;51.060;17.226;2023-02-04T00:35:13;4;0;0
44871;PMS7003;30602;51.060;17.226;2023-02-04T00:38:24;1;0;0
44871;PMS7003;30602;51.060;17.226;2023-02-04T00:41:31;4;1;0
44871;PMS7003;30602;51.060;17.226;2023-02-04T00:45:39;1;0;0
44871;PMS7003;30602;51.060;17.226;2023-02-04T00:49:10;0;0;0
44871;PMS7003;30602;51.060;17.226;2023-02-04T00:52:22;3;3;3
44871;PMS7003;30602;51.060;17.226;2023-02-04T00:55:30;0;0;0
44871;PMS7003;30602;51.060;17.226;2023-02-04T00:59:13;3;2;2
44871;PMS7003;30602;51.060;17.226;2023-02-04T01:02:57;1;1;0
44871;PMS7003;30602;51.060;17.226;2023-02-04T01:06:30;1;0;0
44871;PMS7003;30602;51.060;17.226;2023-02-04T01:09:40;0;0;0
44871;PMS7003;30602;51.060;17.226;2023-02-04T01:13:05;2;0;0
44871;PMS7003;30602;51.060;17.226;2023-02-04T01:16:15;1;0;0
44871;PMS7003;30602;51.060;17.226;2023-02-04T01:19:23;0;0;0
44871;PMS7003;30602;51.060;17.226;2023-02-04T01:22:46;0;0;0
44871;PMS7003;30602;51.060;17.226;2023-02-04T01:25:54;0;0;0
44871;PMS7003;30602;51.060;17.226;2023-02-04T01:29:26;1;1;0
44871;PMS7003;30602;51.060;17.226;2023-02-04T01:32:35;1;1;1
44871;PMS7003;30602;51.060;17.226;2023-02-04T01:35:43;1;1;1
44871;PMS7003;30602;51.060;17.226;2023-02-04T01:38:53;1;1;1
44871;PMS7003;30602;51.060;17.226;2023-02-04T01:42:37;1;0;0
44871;PMS7003;30602;51.060;17.226;2023-02-04T01:46:04;1;0;0
44871;PMS7003;30602;51.060;17.226;2023-02-04T01:49:25;8;7;5
44871;PMS7003;30602;51.060;17.226;2023-02-04T01:52:35;16;13;9
44871;PMS7003;30602;51.060;17.226;2023-02-04T01:56:16;20;16;11
44871;PMS7003;30602;51.060;17.226;2023-02-04T01:59:49;18;16;11
44871;PMS7003;30602;51.060;17.226;2023-02-04T02:03:22;24;21;15
44871;PMS7003;30602;51.060;17.226;2023-02-04T02:06:54;16;16;11
44871;PMS7003;30602;51.060;17.226;2023-02-04T02:10:08;19;17;11
44871;PMS7003;30602;51.060;17.226;2023-02-04T02:13:46;25;18;11
44871;PMS7003;30602;51.060;17.226;2023-02-04T02:17:14;20;18;12
44871;PMS7003;30602;51.060;17.226;2023-02-04T02:20:25;21;19;14
44871;PMS7003;30602;51.060;17.226;2023-02-04T02:27:02;21;15;10
44871;PMS7003;30602;51.060;17.226;2023-02-04T02:30:47;23;15;11
44871;PMS7003;30602;51.060;17.226;2023-02-04T02:33:58;18;17;12
44871;PMS7003;30602;51.060;17.226;2023-02-04T02:37:17;16;13;8
44871;PMS7003;30602;51.060;17.226;2023-02-04T02:40:27;15;13;10
44871;PMS7003;30602;51.060;17.226;2023-02-04T02:43:36;14;13;9
44871;PMS7003;30602;51.060;17.226;2023-02-04T02:47:37;18;14;9
44871;PMS7003;30602;51.060;17.226;2023-02-04T02:50:58;16;12;8
44871;PMS7003;30602;51.060;17.226;2023-02-04T02:54:05;12;10;7
44871;PMS7003;30602;51.060;17.226;2023-02-04T02:57:31;12;10;8
44871;PMS7003;30602;51.060;17.226;2023-02-04T03:01:59;12;9;6
44871;PMS7003;30602;51.060;17.226;2023-02-04T03:05:10;6;5;4
44871;PMS7003;30602;51.060;17.226;2023-02-04T03:08:41;10;7;6
44871;PMS7003;30602;51.060;17.226;2023-02-04T03:12:46;7;7;5
44871;PMS7003;30602;51.060;17.226;2023-02-04T03:16:07;5;5;4
44871;PMS7003;30602;51.060;17.226;2023-02-04T03:19:50;12;8;6
44871;PMS7003;30602;51.060;17.226;2023-02-04T03:23:31;4;3;3
44871;PMS7003;30602;51.060;17.226;2023-02-04T03:27:33;4;3;2
44871;PMS7003;30602;51.060;17.226;2023-02-04T03:30:45;4;3;2
44871;PMS7003;30602;51.060;17.226;2023-02-04T03:34:04;4;3;3
44871;PMS7003;30602;51.060;17.226;2023-02-04T03:37:15;3;2;1
44871;PMS7003;30602;51.060;17.226;2023-02-04T03:40:55;4;2;2
44871;PMS7003;30602;51.060;17.226;2023-02-04T03:44:03;1;1;0
44871;PMS7003;30602;51.060;17.226;2023-02-04T03:47:24;1;1;1
44871;PMS7003;30602;51.060;17.226;2023-02-04T03:50:47;1;1;1
44871;PMS7003;30602;51.060;17.226;2023-02-04T03:54:31;4;2;2
44871;PMS7003;30602;51.060;17.226;2023-02-04T03:57:57;5;1;1
44871;PMS7003;30602;51.060;17.226;2023-02-04T04:01:06;5;1;1
44871;PMS7003;30602;51.060;17.226;2023-02-04T04:04:29;2;2;2
44871;PMS7003;30602;51.060;17.226;2023-02-04T04:07:41;4;3;2
44871;PMS7003;30602;51.060;17.226;2023-02-04T04:10:54;3;3;1
44871;PMS7003;30602;51.060;17.226;2023-02-04T04:14:03;3;3;3
44871;PMS7003;30602;51.060;17.226;2023-02-04T04:17:11;5;4;3
44871;PMS7003;30602;51.060;17.226;2023-02-04T04:20:33;4;3;3
44871;PMS7003;30602;51.060;17.226;2023-02-04T04:24:24;6;5;4
44871;PMS7003;30602;51.060;17.226;2023-02-04T04:27:29;6;3;3
44871;PMS7003;30602;51.060;17.226;2023-02-04T04:30:39;7;5;3
44871;PMS7003;30602;51.060;17.226;2023-02-04T04:33:55;7;6;5
44871;PMS7003;30602;51.060;17.226;2023-02-04T04:37:24;9;6;5
44871;PMS7003;30602;51.060;17.226;2023-02-04T04:40:50;8;7;5
44871;PMS7003;30602;51.060;17.226;2023-02-04T04:44:23;9;5;4
44871;PMS7003;30602;51.060;17.226;2023-02-04T04:47:28;8;7;6
44871;PMS7003;30602;51.060;17.226;2023-02-04T04:50:34;8;8;5
44871;PMS7003;30602;51.060;17.226;2023-02-04T04:54:08;8;6;4
44871;PMS7003;30602;51.060;17.226;2023-02-04T04:57:18;8;7;5
44871;PMS7003;30602;51.060;17.226;2023-02-04T05:00:29;8;8;6
44871;PMS7003;30602;51.060;17.226;2023-02-04T05:03:42;9;8;5
44871;PMS7003;30602;51.060;17.226;2023-02-04T05:06:52;9;7;5
44871;PMS7003;30602;51.060;17.226;2023-02-04T05:10:02;10;7;5
44871;PMS7003;30602;51.060;17.226;2023-02-04T05:13:11;9;9;7
44871;PMS7003;30602;51.060;17.226;2023-02-04T05:16:19;10;8;6
44871;PMS7003;30602;51.060;17.226;2023-02-04T05:19:30;9;7;5
44871;PMS7003;30602;51.060;17.226;2023-02-04T05:22:42;13;10;7
44871;PMS7003;30602;51.060;17.226;2023-02-04T05:26:25;11;9;7
44871;PMS7003;30602;51.060;17.226;2023-02-04T05:29:37;12;10;7
44871;PMS7003;30602;51.060;17.226;2023-02-04T05:32:55;13;9;7
44871;PMS7003;30602;51.060;17.226;2023-02-04T05:36:04;11;10;6
44871;PMS7003;30602;51.060;17.226;2023-02-04T05:39:14;11;9;7
44871;PMS7003;30602;51.060;17.226;2023-02-04T05:42:23;9;8;6
44871;PMS7003;30602;51.060;17.226;2023-02-04T05:45:36;7;6;5
44871;PMS7003;30602;51.060;17.226;2023-02-04T05:48:45;9;8;6
44871;PMS7003;30602;51.060;17.226;2023-02-04T05:52:15;11;9;6
44871;PMS7003;30602;51.060;17.226;2023-02-04T05:56:13;11;10;7
44871;PMS7003;30602;51.060;17.226;2023-02-04T05:59:21;10;9;6
44871;PMS7003;30602;51.060;17.226;2023-02-04T06:02:33;10;9;6
44871;PMS7003;30602;51.060;17.226;2023-02-04T06:05:46;13;10;8
44871;PMS7003;30602;51.060;17.226;2023-02-04T06:08:57;11;10;8
44871;PMS7003;30602;51.060;17.226;2023-02-04T06:12:05;12;10;8
44871;PMS7003;30602;51.060;17.226;2023-02-04T06:15:49;14;10;8
44871;PMS7003;30602;51.060;17.226;2023-02-04T06:18:57;12;10;8
44871;PMS7003;30602;51.060;17.226;2023-02-04T06:22:05;13;9;6
44871;PMS7003;30602;51.060;17.226;2023-02-04T06:25:45;16;13;8
44871;PMS7003;30602;51.060;17.226;2023-02-04T06:29:27;12;9;8
44871;PMS7003;30602;51.060;17.226;2023-02-04T06:32:57;10;8;7
44871;PMS7003;30602;51.060;17.226;2023-02-04T06:36:07;11;8;7
44871;PMS7003;30602;51.060;17.226;2023-02-04T06:39:20;10;9;7
44871;PMS7003;30602;51.060;17.226;2023-02-04T06:43:00;14;10;8
44871;PMS7003;30602;51.060;17.226;2023-02-04T06:46:32;20;10;7
44871;PMS7003;30602;51.060;17.226;2023-02-04T06:49:41;13;8;5
44871;PMS7003;30602;51.060;17.226;2023-02-04T06:52:54;9;9;7
44871;PMS7003;30602;51.060;17.226;2023-02-04T06:57:06;13;9;6
44871;PMS7003;30602;51.060;17.226;2023-02-04T07:00:13;10;10;7
44871;PMS7003;30602;51.060;17.226;2023-02-04T07:04:15;11;9;7
44871;PMS7003;30602;51.060;17.226;2023-02-04T07:07:36;12;12;8
44871;PMS7003;30602;51.060;17.226;2023-02-04T07:10:46;8;8;7
44871;PMS7003;30602;51.060;17.226;2023-02-04T07:13:56;10;9;6
44871;PMS7003;30602;51.060;17.226;2023-02-04T07:17:09;9;7;5
44871;PMS7003;30602;51.060;17.226;2023-02-04T07:20:17;8;7;6
44871;PMS7003;30602;51.060;17.226;2023-02-04T07:23:28;8;8;6
44871;PMS7003;30602;51.060;17.226;2023-02-04T07:27:31;11;10;6
44871;PMS7003;30602;51.060;17.226;2023-02-04T07:31:05;7;6;5
44871;PMS7003;30602;51.060;17.226;2023-02-04T07:34:28;7;6;3
44871;PMS7003;30602;51.060;17.226;2023-02-04T07:37:50;7;4;3
44871;PMS7003;30602;51.060;17.226;2023-02-04T07:41:02;7;3;2
44871;PMS7003;30602;51.060;17.226;2023-02-04T07:44:24;4;4;3
44871;PMS7003;30602;51.060;17.226;2023-02-04T07:48:05;5;5;4
44871;PMS7003;30602;51.060;17.226;2023-02-04T07:51:26;5;4;3
44871;PMS7003;30602;51.060;17.226;2023-02-04T07:54:34;6;4;3
44871;PMS7003;30602;51.060;17.226;2023-02-04T07:57:44;4;4;3
44871;PMS7003;30602;51.060;17.226;2023-02-04T08:01:09;6;5;3
44871;PMS7003;30602;51.060;17.226;2023-02-04T08:04:19;9;7;5
44871;PMS7003;30602;51.060;17.226;2023-02-04T08:07:40;6;5;5
44871;PMS7003;30602;51.060;17.226;2023-02-04T08:10:53;6;6;5
44871;PMS7003;30602;51.060;17.226;2023-02-04T08:14:03;5;4;3
44871;PMS7003;30602;51.060;17.226;2023-02-04T08:17:10;4;4;3
44871;PMS7003;30602;51.060;17.226;2023-02-04T08:20:51;4;4;3
44871;PMS7003;30602;51.060;17.226;2023-02-04T08:24:00;4;4;3
44871;PMS7003;30602;51.060;17.226;2023-02-04T08:28:14;4;3;3
44871;PMS7003;30602;51.060;17.226;2023-02-04T08:31:27;5;4;3
44871;PMS7003;30602;51.060;17.226;2023-02-04T08:34:54;6;3;2
44871;PMS7003;30602;51.060;17.226;2023-02-04T08:38:56;7;4;3
44871;PMS7003;30602;51.060;17.226;2023-02-04T08:42:05;13;9;8
44871;PMS7003;30602;51.060;17.226;2023-02-04T08:45:16;9;6;4
44871;PMS7003;30602;51.060;17.226;2023-02-04T08:48:56;8;5;4
44871;PMS7003;30602;51.060;17.226;2023-02-04T08:52:30;7;5;4
44871;PMS7003;30602;51.060;17.226;2023-02-04T08:56:19;5;3;3
44871;PMS7003;30602;51.060;17.226;2023-02-04T08:59:28;5;4;3
44871;PMS7003;30602;51.060;17.226;2023-02-04T09:02:59;5;4;3
44871;PMS7003;30602;51.060;17.226;2023-02-04T09:06:31;5;4;3
44871;PMS7003;30602;51.060;17.226;2023-02-04T09:10:13;7;4;3
44871;PMS7003;30602;51.060;17.226;2023-02-04T09:13:41;5;5;4
44871;PMS7003;30602;51.060;17.226;2023-02-04T09:17:26;6;6;5
44871;PMS7003;30602;51.060;17.226;2023-02-04T09:20:48;3;3;3
44871;PMS7003;30602;51.060;17.226;2023-02-04T09:23:58;5;5;4
44871;PMS7003;30602;51.060;17.226;2023-02-04T09:27:26;7;6;4
44871;PMS7003;30602;51.060;17.226;2023-02-04T09:30:48;9;8;6
44871;PMS7003;30602;51.060;17.226;2023-02-04T09:34:30;8;5;4
44871;PMS7003;30602;51.060;17.226;2023-02-04T09:38:01;6;5;3
44871;PMS7003;30602;51.060;17.226;2023-02-04T09:41:41;10;6;5
44871;PMS7003;30602;51.060;17.226;2023-02-04T09:45:27;13;10;7
44871;PMS7003;30602;51.060;17.226;2023-02-04T09:49:08;7;5;4
44871;PMS7003;30602;51.060;17.226;2023-02-04T09:52:19;7;5;4
44871;PMS7003;30602;51.060;17.226;2023-02-04T09:55:36;8;7;5
44871;PMS7003;30602;51.060;17.226;2023-02-04T09:58:48;8;6;5
44871;PMS7003;30602;51.060;17.226;2023-02-04T10:02:48;9;5;3
44871;PMS7003;30602;51.060;17.226;2023-02-04T10:05:58;9;7;6
44871;PMS7003;30602;51.060;17.226;2023-02-04T10:09:31;8;8;5
44871;PMS7003;30602;51.060;17.226;2023-02-04T10:13:00;9;8;6
44871;PMS7003;30602;51.060;17.226;2023-02-04T10:16:14;9;8;5
44871;PMS7003;30602;51.060;17.226;2023-02-04T10:20:14;8;8;6
44871;PMS7003;30602;51.060;17.226;2023-02-04T10:24:01;8;6;4
44871;PMS7003;30602;51.060;17.226;2023-02-04T10:27:50;8;7;6
44871;PMS7003;30602;51.060;17.226;2023-02-04T10:35:00;15;12;8
44871;PMS7003;30602;51.060;17.226;2023-02-04T10:38:12;7;5;4
44871;PMS7003;30602;51.060;17.226;2023-02-04T10:41:55;9;7;6
44871;PMS7003;30602;51.060;17.226;2023-02-04T10:45:36;7;6;5
44871;PMS7003;30602;51.060;17.226;2023-02-04T10:48:59;7;6;5
44871;PMS7003;30602;51.060;17.226;2023-02-04T10:52:48;26;22;13
44871;PMS7003;30602;51.060;17.226;2023-02-04T10:56:41;23;20;14
44871;PMS7003;30602;51.060;17.226;2023-02-04T11:00:05;7;5;4
44871;PMS7003;30602;51.060;17.226;2023-02-04T11:03:27;9;7;5
44871;PMS7003;30602;51.060;17.226;2023-02-04T11:06:40;5;5;4
44871;PMS7003;30602;51.060;17.226;2023-02-04T11:10:02;7;6;4
44871;PMS7003;30602;51.060;17.226;2023-02-04T11:17:00;6;6;5
44871;PMS7003;30602;51.060;17.226;2023-02-04T11:20:43;6;5;3
44871;PMS7003;30602;51.060;17.226;2023-02-04T11:24:31;6;4;4
44871;PMS7003;30602;51.060;17.226;2023-02-04T11:27:42;4;4;3
44871;PMS7003;30602;51.060;17.226;2023-02-04T11:34:46;3;2;2
44871;PMS7003;30602;51.060;17.226;2023-02-04T11:38:31;5;4;3
44871;PMS7003;30602;51.060;17.226;2023-02-04T11:41:44;2;2;1
44871;PMS7003;30602;51.060;17.226;2023-02-04T11:45:28;7;6;5
44871;PMS7003;30602;51.060;17.226;2023-02-04T11:48:53;2;2;2
44871;PMS7003;30602;51.060;17.226;2023-02-04T11:52:06;5;5;3
44871;PMS7003;30602;51.060;17.226;2023-02-04T11:55:24;6;4;3
44871;PMS7003;30602;51.060;17.226;2023-02-04T11:58:31;7;4;4
44871;PMS7003;30602;51.060;17.226;2023-02-04T12:02:12;5;4;3
44871;PMS7003;30602;51.060;17.226;2023-02-04T12:09:23;5;3;2
44871;PMS7003;30602;51.060;17.226;2023-02-04T12:12:39;3;2;2
44871;PMS7003;30602;51.060;17.226;2023-02-04T12:19:08;3;2;1
44871;PMS7003;30602;51.060;17.226;2023-02-04T12:22:40;1;1;1
44871;PMS7003;30602;51.060;17.226;2023-02-04T12:26:23;3;3;3
44871;PMS7003;30602;51.060;17.226;2023-02-04T12:29:44;3;2;2
44871;PMS7003;30602;51.060;17.226;2023-02-04T12:33:25;1;1;1
44871;PMS7003;30602;51.060;17.226;2023-02-04T12:36:32;4;3;2
44871;PMS7003;30602;51.060;17.226;2023-02-04T12:39:40;5;4;3
44871;PMS7003;30602;51.060;17.226;2023-02-04T12:43:07;0;0;0
44871;PMS7003;30602;51.060;17.226;2023-02-04T12:46:18;2;1;1
44871;PMS7003;30602;51.060;17.226;2023-02-04T12:49:26;4;1;0
44871;PMS7003;30602;51.060;17.226;2023-02-04T12:52:37;3;2;2
44871;PMS7003;30602;51.060;17.226;2023-02-04T12:55:56;3;2;2
44871;PMS7003;30602;51.060;17.226;2023-02-04T12:59:23;2;0;0
44871;PMS7003;30602;51.060;17.226;2023-02-04T13:03:02;5;3;2
44871;PMS7003;30602;51.060;17.226;2023-02-04T13:06:36;5;3;2
44871;PMS7003;30602;51.060;17.226;2023-02-04T13:10:10;5;3;3
44871;PMS7003;30602;51.060;17.226;2023-02-04T13:13:21;5;3;3
44871;PMS7003;30602;51.060;17.226;2023-02-04T13:16:31;3;2;1
44871;PMS7003;30602;51.060;17.226;2023-02-04T13:19:59;5;2;2
44871;PMS7003;30602;51.060;17.226;2023-02-04T13:23:25;3;1;0
44871;PMS7003;30602;51.060;17.226;2023-02-04T13:26:35;2;2;1
44871;PMS7003;30602;51.060;17.226;2023-02-04T13:30:00;2;2;1
44871;PMS7003;30602;51.060;17.226;2023-02-04T13:33:12;1;1;1
44871;PMS7003;30602;51.060;17.226;2023-02-04T13:36:24;4;1;1
44871;PMS7003;30602;51.060;17.226;2023-02-04T13:39:36;1;1;0
44871;PMS7003;30602;51.060;17.226;2023-02-04T13:42:45;3;2;1
44871;PMS7003;30602;51.060;17.226;2023-02-04T13:45:56;9;6;5
44871;PMS7003;30602;51.060;17.226;2023-02-04T13:49:31;8;4;2
44871;PMS7003;30602;51.060;17.226;2023-02-04T13:52:41;8;5;4
44871;PMS7003;30602;51.060;17.226;2023-02-04T13:56:08;0;0;0
44871;PMS7003;30602;51.060;17.226;2023-02-04T13:59:18;4;2;2
44871;PMS7003;30602;51.060;17.226;2023-02-04T14:02:30;1;1;1
44871;PMS7003;30602;51.060;17.226;2023-02-04T14:05:37;7;4;4
44871;PMS7003;30602;51.060;17.226;2023-02-04T14:08:49;8;6;4
44871;PMS7003;30602;51.060;17.226;2023-02-04T14:11:59;12;9;7
44871;PMS7003;30602;51.060;17.226;2023-02-04T14:15:11;1;1;1
44871;PMS7003;30602;51.060;17.226;2023-02-04T14:18:19;1;1;1
44871;PMS7003;30602;51.060;17.226;2023-02-04T14:21:50;4;3;3
44871;PMS7003;30602;51.060;17.226;2023-02-04T14:24:59;3;3;2
44871;PMS7003;30602;51.060;17.226;2023-02-04T14:28:08;10;9;5
44871;PMS7003;30602;51.060;17.226;2023-02-04T14:31:22;35;26;14
44871;PMS7003;30602;51.060;17.226;2023-02-04T14:34:32;34;27;15
44871;PMS7003;30602;51.060;17.226;2023-02-04T14:37:48;28;24;14
44871;PMS7003;30602;51.060;17.226;2023-02-04T14:41:01;39;27;12
44871;PMS7003;30602;51.060;17.226;2023-02-04T14:44:26;40;31;16
44871;PMS7003;30602;51.060;17.226;2023-02-04T14:47:34;6;5;3
44871;PMS7003;30602;51.060;17.226;2023-02-04T14:51:10;9;7;5
44871;PMS7003;30602;51.060;17.226;2023-02-04T14:54:51;5;4;3
44871;PMS7003;30602;51.060;17.226;2023-02-04T14:58:14;9;6;4
44871;PMS7003;30602;51.060;17.226;2023-02-04T15:01:21;2;0;0
44871;PMS7003;30602;51.060;17.226;2023-02-04T15:04:32;2;2;1
44871;PMS7003;30602;51.060;17.226;2023-02-04T15:08:17;5;4;2
44871;PMS7003;30602;51.060;17.226;2023-02-04T15:11:27;9;5;4
44871;PMS7003;30602;51.060;17.226;2023-02-04T15:15:03;30;25;14
44871;PMS7003;30602;51.060;17.226;2023-02-04T15:18:33;55;41;22
44871;PMS7003;30602;51.060;17.226;2023-02-04T15:21:53;3;3;3
44871;PMS7003;30602;51.060;17.226;2023-02-04T15:25:22;7;5;4
44871;PMS7003;30602;51.060;17.226;2023-02-04T15:28:34;6;5;3
44871;PMS7003;30602;51.060;17.226;2023-02-04T15:31:44;7;7;5
44871;PMS7003;30602;51.060;17.226;2023-02-04T15:34:57;12;10;7
44871;PMS7003;30602;51.060;17.226;2023-02-04T15:38:27;13;9;6
44871;PMS7003;30602;51.060;17.226;2023-02-04T15:41:58;7;7;5
44871;PMS7003;30602;51.060;17.226;2023-02-04T15:45:39;7;7;5
44871;PMS7003;30602;51.060;17.226;2023-02-04T15:49:11;7;6;5
44871;PMS7003;30602;51.060;17.226;2023-02-04T15:52:18;8;6;4
44871;PMS7003;30602;51.060;17.226;2023-02-04T15:55:26;6;3;3
44871;PMS7003;30602;51.060;17.226;2023-02-04T15:58:39;8;3;2
44871;PMS7003;30602;51.060;17.226;2023-02-04T16:01:50;9;5;4
44871;PMS7003;30602;51.060;17.226;2023-02-04T16:04:59;11;11;9
44871;PMS7003;30602;51.060;17.226;2023-02-04T16:08:11;14;13;9
44871;PMS7003;30602;51.060;17.226;2023-02-04T16:11:22;13;12;8
44871;PMS7003;30602;51.060;17.226;2023-02-04T16:14:32;19;14;11
44871;PMS7003;30602;51.060;17.226;2023-02-04T16:18:03;10;8;6
44871;PMS7003;30602;51.060;17.226;2023-02-04T16:21:32;9;7;5
44871;PMS7003;30602;51.060;17.226;2023-02-04T16:24:43;11;9;7
44871;PMS7003;30602;51.060;17.226;2023-02-04T16:27:51;9;5;4
44871;PMS7003;30602;51.060;17.226;2023-02-04T16:31:03;8;6;4
44871;PMS7003;30602;51.060;17.226;2023-02-04T16:34:15;8;4;3
44871;PMS7003;30602;51.060;17.226;2023-02-04T16:37:26;4;3;2
44871;PMS7003;30602;51.060;17.226;2023-02-04T16:40:34;18;14;9
44871;PMS7003;30602;51.060;17.226;2023-02-04T16:43:56;54;42;25
44871;PMS7003;30602;51.060;17.226;2023-02-04T16:47:15;65;51;28
44871;PMS7003;30602;51.060;17.226;2023-02-04T16:50:29;43;33;18
44871;PMS7003;30602;51.060;17.226;2023-02-04T16:54:03;19;15;8
44871;PMS7003;30602;51.060;17.226;2023-02-04T16:57:12;36;24;15
44871;PMS7003;30602;51.060;17.226;2023-02-04T17:00:24;22;13;7
44871;PMS7003;30602;51.060;17.226;2023-02-04T17:03:34;12;10;6
44871;PMS7003;30602;51.060;17.226;2023-02-04T17:06:42;11;7;5
44871;PMS7003;30602;51.060;17.226;2023-02-04T17:09:53;11;8;5
44871;PMS7003;30602;51.060;17.226;2023-02-04T17:13:04;18;13;6
44871;PMS7003;30602;51.060;17.226;2023-02-04T17:16:34;9;6;5
44871;PMS7003;30602;51.060;17.226;2023-02-04T17:19:44;7;4;3
44871;PMS7003;30602;51.060;17.226;2023-02-04T17:22:52;13;10;8
44871;PMS7003;30602;51.060;17.226;2023-02-04T17:26:26;6;4;3
44871;PMS7003;30602;51.060;17.226;2023-02-04T17:29:55;7;6;4
44871;PMS7003;30602;51.060;17.226;2023-02-04T17:33:27;9;6;5
44871;PMS7003;30602;51.060;17.226;2023-02-04T17:36:39;7;5;3
44871;PMS7003;30602;51.060;17.226;2023-02-04T17:40:13;4;3;2
44871;PMS7003;30602;51.060;17.226;2023-02-04T17:43:24;8;6;5
44871;PMS7003;30602;51.060;17.226;2023-02-04T17:47:03;7;5;3
44871;PMS7003;30602;51.060;17.226;2023-02-04T17:50:35;7;5;4
44871;PMS7003;30602;51.060;17.226;2023-02-04T17:54:08;7;3;2
44871;PMS7003;30602;51.060;17.226;2023-02-04T17:57:20;10;7;5
44871;PMS7003;30602;51.060;17.226;2023-02-04T18:00:33;8;7;5
44871;PMS7003;30602;51.060;17.226;2023-02-04T18:04:01;19;14;9
44871;PMS7003;30602;51.060;17.226;2023-02-04T18:07:55;15;11;8
44871;PMS7003;30602;51.060;17.226;2023-02-04T18:15:12;21;12;8
44871;PMS7003;30602;51.060;17.226;2023-02-04T18:18:33;13;10;7
44871;PMS7003;30602;51.060;17.226;2023-02-04T18:21:43;15;10;8
44871;PMS7003;30602;51.060;17.226;2023-02-04T18:24:55;14;13;9
44871;PMS7003;30602;51.060;17.226;2023-02-04T18:28:17;26;23;14
44871;PMS7003;30602;51.060;17.226;2023-02-04T18:31:34;12;9;7
44871;PMS7003;30602;51.060;17.226;2023-02-04T18:34:46;12;10;6
44871;PMS7003;30602;51.060;17.226;2023-02-04T18:37:55;12;8;5
44871;PMS7003;30602;51.060;17.226;2023-02-04T18:41:26;6;4;3
44871;PMS7003;30602;51.060;17.226;2023-02-04T18:44:40;10;6;5
44871;PMS7003;30602;51.060;17.226;2023-02-04T18:47:48;7;6;5
44871;PMS7003;30602;51.060;17.226;2023-02-04T18:51:00;7;7;5
44871;PMS7003;30602;51.060;17.226;2023-02-04T18:54:38;3;3;2
44871;PMS7003;30602;51.060;17.226;2023-02-04T19:01:49;3;1;1
44871;PMS7003;30602;51.060;17.226;2023-02-04T19:08:42;3;3;2
44871;PMS7003;30602;51.060;17.226;2023-02-04T19:11:54;8;6;5
44871;PMS7003;30602;51.060;17.226;2023-02-04T19:18:45;9;7;4
44871;PMS7003;30602;51.060;17.226;2023-02-04T19:21:54;3;2;2
44871;PMS7003;30602;51.060;17.226;2023-02-04T19:28:49;4;2;2
44871;PMS7003;30602;51.060;17.226;2023-02-04T19:32:05;2;2;1
44871;PMS7003;30602;51.060;17.226;2023-02-04T19:35:21;7;3;2
44871;PMS7003;30602;51.060;17.226;2023-02-04T19:39:17;7;3;2
44871;PMS7003;30602;51.060;17.226;2023-02-04T19:42:32;5;5;3
44871;PMS7003;30602;51.060;17.226;2023-02-04T19:46:37;6;6;4
44871;PMS7003;30602;51.060;17.226;2023-02-04T19:53:37;10;7;4
44871;PMS7003;30602;51.060;17.226;2023-02-04T19:56:55;7;6;5
44871;PMS7003;30602;51.060;17.226;2023-02-04T20:00:27;10;8;5
44871;PMS7003;30602;51.060;17.226;2023-02-04T20:03:50;12;8;6
44871;PMS7003;30602;51.060;17.226;2023-02-04T20:07:01;16;13;9
44871;PMS7003;30602;51.060;17.226;2023-02-04T20:10:37;8;7;5
44871;PMS7003;30602;51.060;17.226;2023-02-04T20:13:49;11;8;6
44871;PMS7003;30602;51.060;17.226;2023-02-04T20:20:44;23;18;12
44871;PMS7003;30602;51.060;17.226;2023-02-04T20:23:54;8;7;6
44871;PMS7003;30602;51.060;17.226;2023-02-04T20:27:24;9;8;6
44871;PMS7003;30602;51.060;17.226;2023-02-04T20:30:29;7;6;5
44871;PMS7003;30602;51.060;17.226;2023-02-04T20:33:43;7;5;4
44871;PMS7003;30602;51.060;17.226;2023-02-04T20:37:22;25;18;14
44871;PMS7003;30602;51.060;17.226;2023-02-04T20:40:36;13;10;6
44871;PMS7003;30602;51.060;17.226;2023-02-04T20:43:44;5;3;3
44871;PMS7003;30602;51.060;17.226;2023-02-04T20:47:17;9;6;5
44871;PMS7003;30602;51.060;17.226;2023-02-04T20:53:58;5;5;3
44871;PMS7003;30602;51.060;17.226;2023-02-04T20:57:36;15;13;8
44871;PMS7003;30602;51.060;17.226;2023-02-04T21:04:41;8;6;4
44871;PMS7003;30602;51.060;17.226;2023-02-04T21:11:37;5;5;4
44871;PMS7003;30602;51.060;17.226;2023-02-04T21:14:48;4;4;2
44871;PMS7003;30602;51.060;17.226;2023-02-04T21:17:58;7;6;4
44871;PMS7003;30602;51.060;17.226;2023-02-04T21:21:19;4;4;2
44871;PMS7003;30602;51.060;17.226;2023-02-04T21:24:47;6;5;4
44871;PMS7003;30602;51.060;17.226;2023-02-04T21:28:31;7;6;4
44871;PMS7003;30602;51.060;17.226;2023-02-04T21:31:52;5;4;3
44871;PMS7003;30602;51.060;17.226;2023-02-04T21:35:19;4;4;4
44871;PMS7003;30602;51.060;17.226;2023-02-04T21:38:51;15;14;10
44871;PMS7003;30602;51.060;17.226;2023-02-04T21:41:59;11;10;8
44871;PMS7003;30602;51.060;17.226;2023-02-04T21:46:04;13;10;8
44871;PMS7003;30602;51.060;17.226;2023-02-04T21:49:26;6;4;3
44871;PMS7003;30602;51.060;17.226;2023-02-04T21:52:35;6;4;3
44871;PMS7003;30602;51.060;17.226;2023-02-04T21:55:45;4;3;3
44871;PMS7003;30602;51.060;17.226;2023-02-04T21:59:31;7;4;4
44871;PMS7003;30602;51.060;17.226;2023-02-04T22:02:39;6;4;3
44871;PMS7003;30602;51.060;17.226;2023-02-04T22:05:50;6;5;4
44871;PMS7003;30602;51.060;17.226;2023-02-04T22:08:59;13;10;8
44871;PMS7003;30602;51.060;17.226;2023-02-04T22:12:27;8;8;6
44871;PMS7003;30602;51.060;17.226;2023-02-04T22:15:40;14;11;8
44871;PMS7003;30602;51.060;17.226;2023-02-04T22:18:49;5;3;2
44871;PMS7003;30602;51.060;17.226;2023-02-04T22:22:07;9;8;6
44871;PMS7003;30602;51.060;17.226;2023-02-04T22:25:15;15;11;5
44871;PMS7003;30602;51.060;17.226;2023-02-04T22:28:30;7;7;4
44871;PMS7003;30602;51.060;17.226;2023-02-04T22:31:41;10;7;5
44871;PMS7003;30602;51.060;17.226;2023-02-04T22:34:49;9;7;6
44871;PMS7003;30602;51.060;17.226;2023-02-04T22:38:27;8;6;5
44871;PMS7003;30602;51.060;17.226;2023-02-04T22:41:38;8;7;4
44871;PMS7003;30602;51.060;17.226;2023-02-04T22:44:48;14;13;8
44871;PMS7003;30602;51.060;17.226;2023-02-04T22:48:19;7;7;4
44871;PMS7003;30602;51.060;17.226;2023-02-04T22:51:53;5;4;2
44871;PMS7003;30602;51.060;17.226;2023-02-04T22:55:05;11;8;5
44871;PMS7003;30602;51.060;17.226;2023-02-04T22:58:46;6;6;4
44871;PMS7003;30602;51.060;17.226;2023-02-04T23:02:26;8;5;4
44871;PMS7003;30602;51.060;17.226;2023-02-04T23:05:56;9;6;5
44871;PMS7003;30602;51.060;17.226;2023-02-04T23:09:37;6;6;4